createdAt,value
2017-12-03T00:00:45.063Z,101725.81
2017-12-03T00:01:47.544Z,101723.62
2017-12-03T00:02:50.020Z,101723.35
2017-12-03T00:03:52.496Z,101724.31
2017-12-03T00:04:54.985Z,101721.71
2017-12-03T00:05:57.443Z,101719.11
2017-12-03T00:06:59.913Z,101716.92
2017-12-03T00:08:02.400Z,101719.80
2017-12-03T00:09:04.879Z,101718.98
2017-12-03T00:10:07.354Z,101719.27
2017-12-03T00:11:09.834Z,101716.12
2017-12-03T00:12:12.321Z,101719.83
2017-12-03T00:13:14.808Z,101722.30
2017-12-03T00:14:17.284Z,101718.33
2017-12-03T00:15:19.775Z,101722.98
2017-12-03T00:16:22.256Z,101730.39
2017-12-03T00:17:24.735Z,101718.20
2017-12-03T00:18:27.214Z,101727.94
2017-12-03T00:19:29.693Z,101716.70
2017-12-03T00:20:32.150Z,101715.73
2017-12-03T00:21:34.640Z,101715.88
2017-12-03T00:22:37.106Z,101718.48
2017-12-03T00:23:39.588Z,101716.44
2017-12-03T00:24:42.058Z,101720.14
2017-12-03T00:25:44.539Z,101711.91
2017-12-03T00:26:47.015Z,101721.09
2017-12-03T00:27:49.511Z,101714.80
2017-12-03T00:28:51.994Z,101708.35
2017-12-03T00:29:54.475Z,101706.68
2017-12-03T00:30:56.966Z,101709.02
2017-12-03T00:31:59.431Z,101705.31
2017-12-03T00:33:01.899Z,101710.12
2017-12-03T00:34:04.577Z,101707.78
2017-12-03T00:35:07.038Z,101708.75
2017-12-03T00:36:09.524Z,101707.52
2017-12-03T00:37:11.986Z,101700.25
2017-12-03T00:38:14.475Z,101707.66
2017-12-03T00:39:16.934Z,101707.52
2017-12-03T00:40:19.433Z,101702.99
2017-12-03T00:41:21.898Z,101704.77
2017-12-03T00:42:24.372Z,101707.78
2017-12-03T00:43:26.838Z,101698.33
2017-12-03T00:44:29.352Z,101699.97
2017-12-03T00:45:31.832Z,101703.12
2017-12-03T00:46:34.317Z,101700.53
2017-12-03T00:47:36.796Z,101694.23
2017-12-03T00:48:39.258Z,101693.27
2017-12-03T00:49:41.745Z,101689.98
2017-12-03T00:50:44.241Z,101689.28
2017-12-03T00:51:46.715Z,101687.36
2017-12-03T00:52:49.196Z,101690.92
2017-12-03T00:53:51.683Z,101684.06
2017-12-03T00:54:54.152Z,101686.81
2017-12-03T00:55:56.630Z,101688.32
2017-12-03T00:56:59.109Z,101686.55
2017-12-03T00:58:01.591Z,101688.47
2017-12-03T00:59:04.077Z,101689.02
2017-12-03T01:00:06.556Z,101686.83
2017-12-03T01:01:09.032Z,101685.05
2017-12-03T01:02:11.524Z,101685.16
2017-12-03T01:03:14.019Z,101682.86
2017-12-03T01:04:16.478Z,101691.60
2017-12-03T01:05:18.946Z,101679.00
2017-12-03T01:06:21.437Z,101679.55
2017-12-03T01:07:23.954Z,101679.14
2017-12-03T01:08:26.412Z,101682.98
2017-12-03T01:09:28.878Z,101677.91
2017-12-03T01:10:31.384Z,101674.34
2017-12-03T01:11:33.847Z,101674.08
2017-12-03T01:12:36.344Z,101680.94
2017-12-03T01:13:38.811Z,101678.34
2017-12-03T01:14:41.283Z,101679.30
2017-12-03T01:15:43.748Z,101676.56
2017-12-03T01:16:46.233Z,101673.14
2017-12-03T01:17:48.709Z,101670.95
2017-12-03T01:18:51.196Z,101673.69
2017-12-03T01:19:53.659Z,101678.77
2017-12-03T01:20:56.118Z,101678.35
2017-12-03T01:21:58.604Z,101673.97
2017-12-03T01:23:01.088Z,101677.67
2017-12-03T01:24:03.555Z,101673.70
2017-12-03T01:25:06.045Z,101673.70
2017-12-03T01:26:08.525Z,101674.40
2017-12-03T01:27:11.001Z,101674.95
2017-12-03T01:28:13.508Z,101672.77
2017-12-03T01:29:15.994Z,101673.72
2017-12-03T01:30:18.450Z,101670.71
2017-12-03T01:31:20.925Z,101670.85
2017-12-03T01:32:23.421Z,101673.05
2017-12-03T01:33:25.937Z,101667.02
2017-12-03T01:34:28.410Z,101672.49
2017-12-03T01:35:30.885Z,101661.94
2017-12-03T01:36:33.354Z,101668.24
2017-12-03T01:37:35.833Z,101667.83
2017-12-03T01:38:38.313Z,101669.75
2017-12-03T01:39:40.782Z,101670.30
2017-12-03T01:40:43.265Z,101670.16
2017-12-03T01:41:45.738Z,101668.94
2017-12-03T01:42:48.198Z,101671.81
2017-12-03T01:43:50.681Z,101672.34
2017-12-03T01:44:53.163Z,101675.08
2017-12-03T01:45:55.649Z,101673.30
2017-12-03T01:46:58.136Z,101674.81
2017-12-03T01:48:00.648Z,101676.73
2017-12-03T01:49:03.110Z,101674.95
2017-12-03T01:50:05.588Z,101668.24
2017-12-03T01:51:08.050Z,101666.88
2017-12-03T01:52:10.521Z,101672.35
2017-12-03T01:53:13.005Z,101665.50
2017-12-03T01:54:15.493Z,101665.09
2017-12-03T01:55:17.972Z,101668.38
2017-12-03T01:56:20.450Z,101661.67
2017-12-03T01:57:22.940Z,101662.63
2017-12-03T01:58:25.427Z,101670.45
2017-12-03T01:59:27.894Z,101672.36
2017-12-03T02:00:30.377Z,101657.84
2017-12-03T02:01:32.848Z,101663.33
2017-12-03T02:02:35.333Z,101665.66
2017-12-03T02:03:37.929Z,101661.69
2017-12-03T02:04:40.421Z,101663.61
2017-12-03T02:05:42.909Z,101670.46
2017-12-03T02:06:45.406Z,101667.58
2017-12-03T02:07:47.881Z,101662.50
2017-12-03T02:08:50.364Z,101663.19
2017-12-03T02:09:52.852Z,101666.17
2017-12-03T02:10:55.328Z,101668.37
2017-12-03T02:11:57.816Z,101668.78
2017-12-03T02:13:00.295Z,101670.14
2017-12-03T02:14:02.754Z,101668.22
2017-12-03T02:15:05.214Z,101666.86
2017-12-03T02:16:07.711Z,101670.03
2017-12-03T02:17:10.183Z,101671.92
2017-12-03T02:18:12.650Z,101666.44
2017-12-03T02:19:15.145Z,101665.62
2017-12-03T02:20:17.623Z,101671.92
2017-12-03T02:21:20.111Z,101666.44
2017-12-03T02:22:22.757Z,101667.41
2017-12-03T02:23:25.235Z,101662.06
2017-12-03T02:24:27.736Z,101661.25
2017-12-03T02:25:30.243Z,101658.91
2017-12-03T02:26:32.732Z,101649.73
2017-12-03T02:27:35.195Z,101654.39
2017-12-03T02:28:37.700Z,101653.98
2017-12-03T02:29:40.186Z,101653.98
2017-12-03T02:30:42.663Z,101648.64
2017-12-03T02:31:45.155Z,101644.27
2017-12-03T02:32:47.645Z,101645.23
2017-12-03T02:33:50.131Z,101642.63
2017-12-03T02:34:52.617Z,101640.30
2017-12-03T02:35:55.112Z,101632.89
2017-12-03T02:36:57.589Z,101632.48
2017-12-03T02:38:00.067Z,101629.33
2017-12-03T02:39:02.552Z,101626.19
2017-12-03T02:40:05.054Z,101628.52
2017-12-03T02:41:07.530Z,101625.91
2017-12-03T02:42:10.018Z,101628.52
2017-12-03T02:43:12.509Z,101625.91
2017-12-03T02:44:14.996Z,101623.03
2017-12-03T02:45:17.493Z,101624.95
2017-12-03T02:46:19.988Z,101622.22
2017-12-03T02:47:22.459Z,101631.40
2017-12-03T02:48:24.931Z,101620.58
2017-12-03T02:49:27.420Z,101625.65
2017-12-03T02:50:29.922Z,101622.09
2017-12-03T02:51:32.392Z,101618.53
2017-12-03T02:52:34.863Z,101627.85
2017-12-03T02:53:37.345Z,101628.00
2017-12-03T02:54:39.833Z,101629.78
2017-12-03T02:55:42.313Z,101622.25
2017-12-03T02:56:44.793Z,101623.62
2017-12-03T02:57:47.275Z,101624.17
2017-12-03T02:58:49.774Z,101627.88
2017-12-03T02:59:52.239Z,101621.02
2017-12-03T03:00:54.705Z,101621.02
2017-12-03T03:01:57.188Z,101621.42
2017-12-03T03:02:59.668Z,101620.47
2017-12-03T03:04:02.148Z,101621.70
2017-12-03T03:05:04.627Z,101620.33
2017-12-03T03:06:07.107Z,101616.77
2017-12-03T03:07:09.604Z,101621.84
2017-12-03T03:08:12.074Z,101622.66
2017-12-03T03:09:14.564Z,101615.95
2017-12-03T03:10:17.045Z,101619.09
2017-12-03T03:11:19.527Z,101621.84
2017-12-03T03:12:22.012Z,101624.44
2017-12-03T03:13:24.503Z,101623.48
2017-12-03T03:14:26.996Z,101621.14
2017-12-03T03:15:29.480Z,101617.85
2017-12-03T03:16:31.971Z,101620.33
2017-12-03T03:17:34.456Z,101617.73
2017-12-03T03:18:36.945Z,101616.91
2017-12-03T03:19:39.426Z,101624.17
2017-12-03T03:20:41.882Z,101619.38
2017-12-03T03:21:44.351Z,101620.75
2017-12-03T03:22:46.824Z,101614.31
2017-12-03T03:23:49.313Z,101613.90
2017-12-03T03:24:51.909Z,101620.61
2017-12-03T03:25:54.404Z,101617.05
2017-12-03T03:26:56.874Z,101613.20
2017-12-03T03:27:59.357Z,101612.80
2017-12-03T03:29:01.841Z,101610.06
2017-12-03T03:30:04.308Z,101606.36
2017-12-03T03:31:06.783Z,101604.58
2017-12-03T03:32:09.264Z,101601.42
2017-12-03T03:33:11.739Z,101595.39
2017-12-03T03:34:14.229Z,101602.66
2017-12-03T03:35:16.708Z,101601.69
2017-12-03T03:36:19.204Z,101598.13
2017-12-03T03:37:21.685Z,101603.06
2017-12-03T03:38:24.163Z,101603.45
2017-12-03T03:39:26.630Z,101606.75
2017-12-03T03:40:29.214Z,101604.97
2017-12-03T03:41:31.701Z,101605.38
2017-12-03T03:42:34.179Z,101606.34
2017-12-03T03:43:36.669Z,101605.11
2017-12-03T03:44:39.134Z,101603.47
2017-12-03T03:45:41.602Z,101601.16
2017-12-03T03:46:44.089Z,101600.48
2017-12-03T03:47:46.555Z,101601.28
2017-12-03T03:48:49.022Z,101602.39
2017-12-03T03:49:51.516Z,101598.70
2017-12-03T03:50:54.001Z,101595.29
2017-12-03T03:51:56.467Z,101600.36
2017-12-03T03:52:58.942Z,101602.42
2017-12-03T03:54:01.449Z,101601.61
2017-12-03T03:55:03.918Z,101599.41
2017-12-03T03:56:06.391Z,101598.73
2017-12-03T03:57:08.879Z,101601.89
2017-12-03T03:58:11.357Z,101604.62
2017-12-03T03:59:13.830Z,101603.81
2017-12-03T04:00:16.316Z,101602.03
2017-12-03T04:01:18.809Z,101601.62
2017-12-03T04:02:21.278Z,101602.17
2017-12-03T04:03:23.751Z,101599.98
2017-12-03T04:04:26.242Z,101597.94
2017-12-03T04:05:28.744Z,101598.48
2017-12-03T04:06:31.216Z,101595.75
2017-12-03T04:07:33.699Z,101595.59
2017-12-03T04:08:36.201Z,101594.36
2017-12-03T04:09:38.717Z,101593.81
2017-12-03T04:10:41.239Z,101594.77
2017-12-03T04:11:43.742Z,101595.05
2017-12-03T04:12:46.236Z,101596.84
2017-12-03T04:13:48.703Z,101595.05
2017-12-03T04:14:51.188Z,101598.89
2017-12-03T04:15:53.681Z,101595.34
2017-12-03T04:16:56.159Z,101596.99
2017-12-03T04:17:58.639Z,101596.99
2017-12-03T04:19:01.131Z,101595.35
2017-12-03T04:20:03.640Z,101596.45
2017-12-03T04:21:06.124Z,101600.16
2017-12-03T04:22:08.635Z,101603.30
2017-12-03T04:23:11.103Z,101601.12
2017-12-03T04:24:13.581Z,101600.70
2017-12-03T04:25:16.075Z,101600.70
2017-12-03T04:26:18.547Z,101594.00
2017-12-03T04:27:21.021Z,101598.11
2017-12-03T04:28:23.509Z,101598.25
2017-12-03T04:29:25.996Z,101592.36
2017-12-03T04:30:28.485Z,101593.88
2017-12-03T04:31:30.950Z,101594.28
2017-12-03T04:32:33.418Z,101598.80
2017-12-03T04:33:35.882Z,101599.35
2017-12-03T04:34:38.359Z,101594.14
2017-12-03T04:35:40.845Z,101597.70
2017-12-03T04:36:43.452Z,101596.33
2017-12-03T04:37:45.931Z,101600.30
2017-12-03T04:38:48.422Z,101603.03
2017-12-03T04:39:50.898Z,101599.89
2017-12-03T04:40:53.382Z,101598.11
2017-12-03T04:41:55.881Z,101602.22
2017-12-03T04:42:58.357Z,101602.22
2017-12-03T04:44:00.855Z,101603.03
2017-12-03T04:45:03.345Z,101595.37
2017-12-03T04:46:05.829Z,101590.30
2017-12-03T04:47:08.309Z,101597.15
2017-12-03T04:48:10.910Z,101598.11
2017-12-03T04:49:13.384Z,101596.73
2017-12-03T04:50:15.850Z,101603.03
2017-12-03T04:51:18.318Z,101597.97
2017-12-03T04:52:20.804Z,101602.89
2017-12-03T04:53:23.277Z,101601.94
2017-12-03T04:54:25.800Z,101597.55
2017-12-03T04:55:28.296Z,101599.34
2017-12-03T04:56:30.804Z,101591.67
2017-12-03T04:57:33.289Z,101598.11
2017-12-03T04:58:35.762Z,101599.35
2017-12-03T04:59:38.248Z,101597.84
2017-12-03T05:00:40.723Z,101601.68
2017-12-03T05:01:43.203Z,101599.91
2017-12-03T05:02:45.679Z,101594.97
2017-12-03T05:03:48.230Z,101591.83
2017-12-03T05:04:50.695Z,101590.19
2017-12-03T05:05:53.180Z,101590.19
2017-12-03T05:06:55.654Z,101589.78
2017-12-03T05:07:58.141Z,101588.14
2017-12-03T05:09:00.620Z,101590.03
2017-12-03T05:10:03.086Z,101591.40
2017-12-03T05:11:05.579Z,101589.10
2017-12-03T05:12:08.068Z,101594.98
2017-12-03T05:13:10.549Z,101595.09
2017-12-03T05:14:13.041Z,101591.92
2017-12-03T05:15:15.532Z,101591.84
2017-12-03T05:16:18.017Z,101592.47
2017-12-03T05:17:20.512Z,101590.69
2017-12-03T05:18:22.996Z,101596.72
2017-12-03T05:19:25.480Z,101594.80
2017-12-03T05:20:27.969Z,101589.87
2017-12-03T05:21:30.448Z,101593.02
2017-12-03T05:22:32.936Z,101592.66
2017-12-03T05:23:35.434Z,101588.41
2017-12-03T05:24:37.920Z,101589.64
2017-12-03T05:25:40.399Z,101590.59
2017-12-03T05:26:42.866Z,101592.52
2017-12-03T05:27:45.335Z,101586.22
2017-12-03T05:28:47.823Z,101584.99
2017-12-03T05:29:50.290Z,101583.18
2017-12-03T05:30:52.759Z,101579.73
2017-12-03T05:31:55.247Z,101576.17
2017-12-03T05:32:57.727Z,101576.87
2017-12-03T05:34:00.196Z,101573.31
2017-12-03T05:35:02.684Z,101570.70
2017-12-03T05:36:05.189Z,101576.34
2017-12-03T05:37:07.684Z,101569.08
2017-12-03T05:38:10.171Z,101569.08
2017-12-03T05:39:12.657Z,101570.14
2017-12-03T05:40:15.132Z,101566.73
2017-12-03T05:41:17.607Z,101566.46
2017-12-03T05:42:20.083Z,101568.67
2017-12-03T05:43:22.550Z,101564.70
2017-12-03T05:44:25.023Z,101567.17
2017-12-03T05:45:27.490Z,101571.56
2017-12-03T05:46:29.972Z,101573.22
2017-12-03T05:47:32.464Z,101570.61
2017-12-03T05:48:34.949Z,101564.46
2017-12-03T05:49:37.424Z,101567.89
2017-12-03T05:50:39.925Z,101568.44
2017-12-03T05:51:42.404Z,101568.58
2017-12-03T05:52:44.877Z,101563.62
2017-12-03T05:53:47.342Z,101564.32
2017-12-03T05:54:49.833Z,101563.77
2017-12-03T05:55:52.302Z,101566.50
2017-12-03T05:56:54.788Z,101563.08
2017-12-03T05:57:57.263Z,101556.92
2017-12-03T05:58:59.735Z,101561.44
2017-12-03T06:00:02.249Z,101560.62
2017-12-03T06:01:04.737Z,101557.88
2017-12-03T06:02:07.239Z,101552.69
2017-12-03T06:03:09.719Z,101555.02
2017-12-03T06:04:12.209Z,101554.34
2017-12-03T06:05:14.689Z,101555.96
2017-12-03T06:06:17.177Z,101550.77
2017-12-03T06:07:19.652Z,101554.88
2017-12-03T06:08:22.131Z,101553.23
2017-12-03T06:09:24.623Z,101554.75
2017-12-03T06:10:27.133Z,101549.41
2017-12-03T06:11:29.602Z,101550.92
2017-12-03T06:12:32.070Z,101555.58
2017-12-03T06:13:34.538Z,101556.27
2017-12-03T06:14:37.029Z,101556.41
2017-12-03T06:15:39.507Z,101562.03
2017-12-03T06:16:42.013Z,101558.87
2017-12-03T06:17:44.483Z,101555.47
2017-12-03T06:18:46.970Z,101552.05
2017-12-03T06:19:49.559Z,101560.81
2017-12-03T06:20:52.041Z,101559.03
2017-12-03T06:21:54.520Z,101555.48
2017-12-03T06:22:56.982Z,101555.21
2017-12-03T06:23:59.465Z,101558.09
2017-12-03T06:25:01.954Z,101553.02
2017-12-03T06:26:04.444Z,101550.80
2017-12-03T06:27:06.920Z,101555.87
2017-12-03T06:28:09.413Z,101554.91
2017-12-03T06:29:11.913Z,101558.34
2017-12-03T06:30:14.382Z,101565.73
2017-12-03T06:31:16.866Z,101559.84
2017-12-03T06:32:19.330Z,101563.69
2017-12-03T06:33:21.794Z,101557.80
2017-12-03T06:34:24.277Z,101566.56
2017-12-03T06:35:26.767Z,101561.23
2017-12-03T06:36:29.238Z,101560.81
2017-12-03T06:37:31.715Z,101565.33
2017-12-03T06:38:34.192Z,101570.81
2017-12-03T06:39:36.677Z,101559.86
2017-12-03T06:40:39.164Z,101556.57
2017-12-03T06:41:41.666Z,101558.90
2017-12-03T06:42:44.138Z,101557.94
2017-12-03T06:43:46.593Z,101556.16
2017-12-03T06:44:49.063Z,101561.64
2017-12-03T06:45:51.548Z,101557.94
2017-12-03T06:46:54.036Z,101569.03
2017-12-03T06:47:56.498Z,101564.78
2017-12-03T06:48:58.992Z,101566.70
2017-12-03T06:50:01.455Z,101563.15
2017-12-03T06:51:03.929Z,101563.28
2017-12-03T06:52:06.394Z,101565.20
2017-12-03T06:53:08.923Z,101567.12
2017-12-03T06:54:11.395Z,101567.12
2017-12-03T06:55:13.874Z,101574.78
2017-12-03T06:56:16.343Z,101569.45
2017-12-03T06:57:18.823Z,101568.63
2017-12-03T06:58:21.298Z,101574.92
2017-12-03T06:59:23.770Z,101571.23
2017-12-03T07:00:26.233Z,101578.48
2017-12-03T07:01:28.702Z,101581.22
2017-12-03T07:02:31.171Z,101580.41
2017-12-03T07:03:33.639Z,101581.91
2017-12-03T07:04:36.119Z,101586.02
2017-12-03T07:05:38.590Z,101582.73
2017-12-03T07:06:41.308Z,101584.51
2017-12-03T07:07:44.141Z,101583.69
2017-12-03T07:08:46.611Z,101586.42
2017-12-03T07:09:49.112Z,101588.34
2017-12-03T07:10:51.593Z,101588.75
2017-12-03T07:11:54.057Z,101587.53
2017-12-03T07:12:56.534Z,101591.62
2017-12-03T07:13:59.024Z,101590.81
2017-12-03T07:15:01.524Z,101592.18
2017-12-03T07:16:03.986Z,101590.27
2017-12-03T07:17:06.468Z,101590.81
2017-12-03T07:18:08.930Z,101591.22
2017-12-03T07:19:11.409Z,101594.37
2017-12-03T07:20:13.936Z,101590.27
2017-12-03T07:21:16.402Z,101597.66
2017-12-03T07:22:18.906Z,101592.59
2017-12-03T07:23:21.382Z,101593.00
2017-12-03T07:24:23.874Z,101597.11
2017-12-03T07:25:26.381Z,101594.78
2017-12-03T07:26:28.851Z,101591.62
2017-12-03T07:27:31.352Z,101587.39
2017-12-03T07:28:33.841Z,101587.80
2017-12-03T07:29:36.402Z,101589.16
2017-12-03T07:30:38.933Z,101588.20
2017-12-03T07:31:41.412Z,101585.87
2017-12-03T07:32:43.886Z,101584.09
2017-12-03T07:33:46.364Z,101579.99
2017-12-03T07:34:48.849Z,101579.03
2017-12-03T07:35:51.369Z,101583.00
2017-12-03T07:36:53.847Z,101578.07
2017-12-03T07:37:56.337Z,101577.25
2017-12-03T07:38:58.803Z,101579.58
2017-12-03T07:40:01.290Z,101573.15
2017-12-03T07:41:03.793Z,101575.48
2017-12-03T07:42:06.264Z,101576.16
2017-12-03T07:43:08.727Z,101572.87
2017-12-03T07:44:11.195Z,101580.54
2017-12-03T07:45:13.676Z,101570.28
2017-12-03T07:46:16.162Z,101573.02
2017-12-03T07:47:18.649Z,101571.65
2017-12-03T07:48:21.119Z,101581.78
2017-12-03T07:49:23.605Z,101576.03
2017-12-03T07:50:26.066Z,101582.06
2017-12-03T07:51:28.561Z,101582.75
2017-12-03T07:52:31.031Z,101579.61
2017-12-03T07:53:33.512Z,101587.55
2017-12-03T07:54:36.017Z,101586.42
2017-12-03T07:55:38.504Z,101581.09
2017-12-03T07:56:41.008Z,101576.72
2017-12-03T07:57:43.480Z,101576.86
2017-12-03T07:58:45.942Z,101577.41
2017-12-03T07:59:48.416Z,101574.81
2017-12-03T08:00:50.879Z,101569.74
2017-12-03T08:01:53.374Z,101574.39
2017-12-03T08:02:55.838Z,101573.29
2017-12-03T08:03:58.310Z,101574.66
2017-12-03T08:05:00.783Z,101573.70
2017-12-03T08:06:03.264Z,101573.70
2017-12-03T08:07:05.850Z,101572.19
2017-12-03T08:08:08.341Z,101564.42
2017-12-03T08:09:10.885Z,101572.19
2017-12-03T08:10:13.363Z,101574.82
2017-12-03T08:11:15.885Z,101573.04
2017-12-03T08:12:18.385Z,101572.49
2017-12-03T08:13:20.846Z,101574.27
2017-12-03T08:14:23.332Z,101569.61
2017-12-03T08:15:25.819Z,101565.92
2017-12-03T08:16:28.299Z,101572.35
2017-12-03T08:17:30.782Z,101575.50
2017-12-03T08:18:33.262Z,101569.61
2017-12-03T08:19:35.722Z,101567.84
2017-12-03T08:20:39.059Z,101569.88
2017-12-03T08:21:41.545Z,101571.25
2017-12-03T08:22:44.054Z,101574.39
2017-12-03T08:23:46.557Z,101567.28
2017-12-03T08:24:49.205Z,101571.01
2017-12-03T08:25:52.508Z,101565.55
2017-12-03T08:26:54.996Z,101569.66
2017-12-03T08:27:57.492Z,101568.29
2017-12-03T08:28:59.972Z,101569.66
2017-12-03T08:30:02.459Z,101574.39
2017-12-03T08:31:04.960Z,101575.78
2017-12-03T08:32:07.442Z,101570.84
2017-12-03T08:33:09.994Z,101571.63
2017-12-03T08:34:12.466Z,101573.68
2017-12-03T08:35:14.952Z,101572.69
2017-12-03T08:36:17.445Z,101581.98
2017-12-03T08:37:19.923Z,101578.70
2017-12-03T08:38:22.442Z,101580.06
2017-12-03T08:39:24.925Z,101577.88
2017-12-03T08:40:27.417Z,101581.56
2017-12-03T08:41:29.904Z,101581.30
2017-12-03T08:42:32.428Z,101579.37
2017-12-03T08:43:34.904Z,101579.47
2017-12-03T08:44:37.405Z,101583.11
2017-12-03T08:45:39.899Z,101580.64
2017-12-03T08:46:42.370Z,101582.70
2017-12-03T08:47:44.861Z,101577.38
2017-12-03T08:48:47.364Z,101582.02
2017-12-03T08:49:49.840Z,101579.28
2017-12-03T08:50:52.326Z,101579.16
2017-12-03T08:51:54.812Z,101579.56
2017-12-03T08:52:57.287Z,101578.23
2017-12-03T08:53:59.804Z,101576.05
2017-12-03T08:55:02.274Z,101571.28
2017-12-03T08:56:04.780Z,101570.36
2017-12-03T08:57:07.255Z,101577.61
2017-12-03T08:58:09.724Z,101574.50
2017-12-03T08:59:12.234Z,101566.70
2017-12-03T09:00:14.707Z,101575.59
2017-12-03T09:01:17.188Z,101575.31
2017-12-03T09:02:19.692Z,101569.30
2017-12-03T09:03:22.158Z,101575.59
2017-12-03T09:04:24.646Z,101572.03
2017-12-03T09:05:27.138Z,101573.13
2017-12-03T09:06:29.641Z,101572.41
2017-12-03T09:07:32.129Z,101573.23
2017-12-03T09:08:34.633Z,101570.91
2017-12-03T09:09:37.135Z,101572.14
2017-12-03T09:10:39.606Z,101574.97
2017-12-03T09:11:42.088Z,101574.41
2017-12-03T09:12:44.580Z,101575.09
2017-12-03T09:13:47.066Z,101574.23
2017-12-03T09:14:49.579Z,101580.24
2017-12-03T09:15:52.055Z,101573.69
2017-12-03T09:16:54.541Z,101577.78
2017-12-03T09:17:57.019Z,101580.23
2017-12-03T09:18:59.490Z,101578.59
2017-12-03T09:20:01.988Z,101579.95
2017-12-03T09:21:04.477Z,101579.41
2017-12-03T09:22:06.972Z,101582.92
2017-12-03T09:23:09.451Z,101588.65
2017-12-03T09:24:11.941Z,101576.90
2017-12-03T09:25:14.453Z,101577.72
2017-12-03T09:26:16.943Z,101577.16
2017-12-03T09:27:19.411Z,101583.71
2017-12-03T09:28:21.883Z,101580.30
2017-12-03T09:29:24.350Z,101580.30
2017-12-03T09:30:26.842Z,101584.80
2017-12-03T09:31:29.335Z,101580.70
2017-12-03T09:32:31.872Z,101583.44
2017-12-03T09:33:34.390Z,101579.75
2017-12-03T09:34:36.873Z,101582.34
2017-12-03T09:35:39.364Z,101586.03
2017-12-03T09:36:41.866Z,101582.36
2017-12-03T09:37:45.092Z,101585.77
2017-12-03T09:38:47.560Z,101580.58
2017-12-03T09:39:50.034Z,101581.27
2017-12-03T09:40:52.542Z,101582.37
2017-12-03T09:41:55.011Z,101583.73
2017-12-03T09:42:57.505Z,101583.64
2017-12-03T09:43:59.990Z,101584.05
2017-12-03T09:45:02.460Z,101582.28
2017-12-03T09:46:04.965Z,101588.58
2017-12-03T09:47:07.436Z,101581.12
2017-12-03T09:48:09.927Z,101578.05
2017-12-03T09:49:12.425Z,101575.21
2017-12-03T09:50:14.918Z,101571.16
2017-12-03T09:51:18.080Z,101573.46
2017-12-03T09:52:20.561Z,101570.88
2017-12-03T09:53:23.049Z,101577.27
2017-12-03T09:54:25.549Z,101575.44
2017-12-03T09:55:28.046Z,101570.86
2017-12-03T09:56:30.626Z,101571.48
2017-12-03T09:57:33.128Z,101572.26
2017-12-03T09:58:35.613Z,101570.09
2017-12-03T09:59:38.109Z,101569.48
2017-12-03T10:00:40.601Z,101571.59
2017-12-03T10:01:43.094Z,101570.18
2017-12-03T10:02:45.575Z,101569.12
2017-12-03T10:03:48.468Z,101570.33
2017-12-03T10:04:50.982Z,101563.59
2017-12-03T10:05:53.464Z,101567.94
2017-12-03T10:06:55.967Z,101570.13
2017-12-03T10:07:58.444Z,101575.77
2017-12-03T10:09:00.916Z,101566.58
2017-12-03T10:10:03.440Z,101575.34
2017-12-03T10:11:05.916Z,101576.80
2017-12-03T10:12:08.429Z,101570.83
2017-12-03T10:13:10.909Z,101575.85
2017-12-03T10:14:13.396Z,101573.16
2017-12-03T10:15:15.893Z,101574.74
2017-12-03T10:16:18.378Z,101574.98
2017-12-03T10:17:20.872Z,101573.58
2017-12-03T10:18:23.364Z,101579.59
2017-12-03T10:19:25.853Z,101578.48
2017-12-03T10:20:28.354Z,101580.93
2017-12-03T10:21:30.831Z,101577.52
2017-12-03T10:22:33.357Z,101577.25
2017-12-03T10:23:35.832Z,101574.95
2017-12-03T10:24:38.321Z,101577.42
2017-12-03T10:25:40.800Z,101579.21
2017-12-03T10:26:43.279Z,101572.23
2017-12-03T10:27:45.829Z,101577.61
2017-12-03T10:28:48.321Z,101577.48
2017-12-03T10:29:50.835Z,101572.41
2017-12-03T10:30:53.388Z,101575.94
2017-12-03T10:31:55.857Z,101576.73
2017-12-03T10:32:58.344Z,101579.37
2017-12-03T10:34:00.820Z,101574.34
2017-12-03T10:35:03.367Z,101576.70
2017-12-03T10:36:05.865Z,101568.09
2017-12-03T10:37:08.370Z,101565.80
2017-12-03T10:38:16.677Z,101565.11
2017-12-03T10:39:19.152Z,101566.64
2017-12-03T10:40:26.404Z,101566.74
2017-12-03T10:41:29.071Z,101561.69
2017-12-03T10:42:31.558Z,101553.30
2017-12-03T10:43:34.102Z,101549.95
2017-12-03T10:44:36.591Z,101552.33
2017-12-03T10:45:39.097Z,101551.02
2017-12-03T10:46:41.563Z,101548.37
2017-12-03T10:47:44.551Z,101544.69
2017-12-03T10:48:47.048Z,101535.28
2017-12-03T10:49:49.529Z,101538.80
2017-12-03T10:50:52.016Z,101543.14
2017-12-03T10:51:54.500Z,101543.24
2017-12-03T10:52:56.971Z,101539.59
2017-12-03T10:53:59.464Z,101547.72
2017-12-03T10:55:01.932Z,101539.47
2017-12-03T10:56:04.405Z,101540.55
2017-12-03T10:57:06.901Z,101539.47
2017-12-03T10:58:09.375Z,101541.42
2017-12-03T10:59:11.878Z,101538.05
2017-12-03T11:00:14.384Z,101535.27
2017-12-03T11:01:16.869Z,101535.16
2017-12-03T11:02:19.353Z,101540.83
2017-12-03T11:03:22.011Z,101539.64
2017-12-03T11:04:24.512Z,101541.77
2017-12-03T11:05:26.974Z,101534.53
2017-12-03T11:06:29.857Z,101532.37
2017-12-03T11:07:32.338Z,101528.59
2017-12-03T11:08:34.807Z,101529.34
2017-12-03T11:09:37.387Z,101527.72
2017-12-03T11:10:39.866Z,101521.03
2017-12-03T11:11:42.349Z,101525.49
2017-12-03T11:12:44.814Z,101519.07
2017-12-03T11:13:47.293Z,101521.72
2017-12-03T11:14:49.779Z,101521.46
2017-12-03T11:15:52.243Z,101516.16
2017-12-03T11:16:54.715Z,101522.54
2017-12-03T11:17:57.294Z,101521.47
2017-12-03T11:18:59.825Z,101520.28
2017-12-03T11:20:02.337Z,101515.23
2017-12-03T11:21:04.874Z,101515.67
2017-12-03T11:22:07.367Z,101514.86
2017-12-03T11:23:09.863Z,101512.41
2017-12-03T11:24:12.334Z,101517.19
2017-12-03T11:25:14.827Z,101513.30
2017-12-03T11:26:17.316Z,101507.47
2017-12-03T11:27:19.794Z,101509.73
2017-12-03T11:28:22.279Z,101505.38
2017-12-03T11:29:24.761Z,101502.08
2017-12-03T11:30:27.261Z,101506.56
2017-12-03T11:31:29.742Z,101498.94
2017-12-03T11:32:32.230Z,101499.02
2017-12-03T11:33:34.718Z,101502.98
2017-12-03T11:34:37.208Z,101497.07
2017-12-03T11:35:39.768Z,101491.42
2017-12-03T11:36:42.228Z,101492.39
2017-12-03T11:37:45.458Z,101493.73
2017-12-03T11:38:47.928Z,101490.61
2017-12-03T11:39:50.425Z,101488.28
2017-12-03T11:40:52.931Z,101484.75
2017-12-03T11:41:55.413Z,101487.02
2017-12-03T11:42:57.896Z,101492.81
2017-12-03T11:44:00.813Z,101489.66
2017-12-03T11:45:03.352Z,101487.37
2017-12-03T11:46:05.856Z,101483.37
2017-12-03T11:47:08.348Z,101492.05
2017-12-03T11:48:10.819Z,101493.31
2017-12-03T11:49:13.284Z,101486.60
2017-12-03T11:50:15.846Z,101489.53
2017-12-03T11:51:19.878Z,101490.65
2017-12-03T11:52:22.400Z,101486.68
2017-12-03T11:53:24.884Z,101493.28